Airfield :
LOGIN :

Register | Disclaimer

   EN    FR    IT 

 










Legend :    VFR   Marginal VFR   IFR   Intensive IFR   Very Intensive IFR
Visi :
Ceiling :
>= 8 km
>= 3000ft
5 to 8 km
1000 to 3000 ft
1500m to 5 km
500 to 1000 ft
800 to 1500m
200 to 500 ft
< 800m
< 200 ft
Symbols :   Thunderstorms  Fog  Heavy snow  Heavy precipitations  Wind > 20 kt
SIGMETs :     Misc.  Thunderstorms  Icing  Turbulence  Mountain Waves  Volcanic Ashes







- Airport Elevation : 1302 ft
- IATA code : GNB
- Download approach charts


LFLS - Grenoble / St. Geoirs

CURRENT METAR :
  • 220030Z AUTO 10006KT CAVOK 14/13 Q1014

EXPIRED METARs :
  • 220000Z AUTO 10004KT CAVOK 15/13 Q1014
  • 212330Z AUTO 09005KT CAVOK 16/14 Q1014
  • 212300Z AUTO 08006KT CAVOK 16/15 Q1014
  • 212230Z AUTO 08005KT CAVOK 16/14 Q1014
  • 212200Z AUTO 08006KT CAVOK 16/14 Q1014

TAF AMD TAF LFLS
Valid from the 21 at 15:00 until the 22 at 15:00 UTC


211551Z 2115/2215 27012KT 9999 SCT070TCU
TEMPO 2116/2122 4500 SHRA BKN060TCU
PROB40
TEMPO 2116/2119 VRB15G25KT 2800 TSRA BKN055CB
PROB30
TEMPO 2116/2119 VRB20G35KT 1400 TSGR OVC030CB
BECMG 2122/2124 09012KT BKN065
BECMG 2206/2208 CAVOK
BECMG 2209/2211 27012KT SCT055TCU
TEMPO 2212/2215 4000 SHRA BKN055TCU
PROB40
TEMPO 2213/2215 VRB15G25KT 2800 TSRA BKN055CB
PROB30
TEMPO 2213/2215 VRB25G35KT 1400 TSGR OVC040CB
ATIS : +33 4 76 65 55 89
No reported NOTAMs for that airfield.



MET'MAP, your aeronautical weather chart ! - Copyright ORBIFLY December 2007 - Disclaimer

ORBIFLY MET'MAP TEAM :

Programming & Development : Alexandra Zaïnal
Concept & Development : Baudouin d'Aumeries
Co-Development & Prog : Marc-Olivier Méhu
Technical & hardware support : Manuel Goepfert

Contact : metmap@orbifly.com




SOURCES & CREDITS :

   NOAA